createdAt,value
2018-03-26T00:01:49.568Z,46.80
2018-03-26T00:04:15.752Z,43.13
2018-03-26T00:06:43.098Z,56.53
2018-03-26T00:09:09.289Z,49.57
2018-03-26T00:11:35.507Z,42.60
2018-03-26T00:14:01.701Z,47.40
2018-03-26T00:16:28.656Z,42.97
2018-03-26T00:18:54.844Z,45.27
2018-03-26T00:21:21.069Z,44.67
2018-03-26T00:23:47.265Z,45.00
2018-03-26T00:26:13.508Z,52.27
2018-03-26T00:28:39.714Z,42.03
2018-03-26T00:31:05.942Z,40.73
2018-03-26T00:33:32.124Z,47.00
2018-03-26T00:35:58.360Z,48.77
2018-03-26T00:38:24.579Z,45.57
2018-03-26T00:40:50.797Z,53.63
2018-03-26T00:43:17.000Z,50.27
2018-03-26T00:45:43.217Z,42.50
2018-03-26T00:48:09.428Z,48.03
2018-03-26T00:50:35.660Z,50.53
2018-03-26T00:53:01.850Z,55.83
2018-03-26T00:55:28.065Z,37.20
2018-03-26T00:57:54.261Z,50.03
2018-03-26T01:00:20.484Z,46.30
2018-03-26T01:02:46.697Z,52.83
2018-03-26T01:05:13.912Z,53.27
2018-03-26T01:07:40.144Z,52.00
2018-03-26T01:10:06.349Z,48.10
2018-03-26T01:12:32.556Z,40.03
2018-03-26T01:14:59.330Z,53.13
2018-03-26T01:17:26.789Z,48.17
2018-03-26T01:19:53.426Z,47.43
2018-03-26T01:22:19.665Z,42.57
2018-03-26T01:24:45.852Z,47.47
2018-03-26T01:27:12.100Z,48.40
2018-03-26T01:29:38.292Z,53.27
2018-03-26T01:32:04.508Z,49.50
2018-03-26T01:34:31.439Z,47.10
2018-03-26T01:36:57.656Z,44.53
2018-03-26T01:39:23.845Z,50.93
2018-03-26T01:41:50.068Z,51.60
2018-03-26T01:44:16.327Z,53.23
2018-03-26T01:46:42.540Z,51.30
2018-03-26T01:49:08.744Z,39.70
2018-03-26T01:51:35.200Z,50.70
2018-03-26T01:54:01.396Z,44.33
2018-03-26T01:56:27.661Z,52.33
2018-03-26T01:58:53.852Z,46.90
2018-03-26T02:01:20.828Z,46.67
2018-03-26T02:03:47.046Z,45.70
2018-03-26T02:06:13.274Z,48.77
2018-03-26T02:08:39.501Z,53.83
2018-03-26T02:11:05.713Z,46.57
2018-03-26T02:13:32.664Z,42.80
2018-03-26T02:15:59.600Z,43.57
2018-03-26T02:18:26.557Z,48.23
2018-03-26T02:20:53.489Z,47.50
2018-03-26T02:23:20.451Z,39.23
2018-03-26T02:25:46.701Z,43.83
2018-03-26T02:28:12.984Z,36.47
2018-03-26T02:30:39.172Z,38.93
2018-03-26T02:33:05.388Z,47.90
2018-03-26T02:35:31.835Z,49.70
2018-03-26T02:37:58.057Z,49.00
2018-03-26T02:40:24.256Z,50.33
2018-03-26T02:42:51.192Z,46.30
2018-03-26T02:45:18.150Z,48.90
2018-03-26T02:47:44.363Z,45.40
2018-03-26T02:50:11.325Z,51.10
2018-03-26T02:52:37.589Z,45.10
2018-03-26T02:55:03.805Z,45.50
2018-03-26T02:57:30.017Z,42.30
2018-03-26T02:59:56.235Z,44.93
2018-03-26T03:02:23.172Z,52.13
2018-03-26T03:04:50.129Z,44.60
2018-03-26T03:07:16.332Z,44.00
2018-03-26T03:09:42.558Z,50.90
2018-03-26T03:12:08.752Z,44.57
2018-03-26T03:14:35.072Z,47.27
2018-03-26T03:17:01.264Z,48.40
2018-03-26T03:19:28.204Z,53.23
2018-03-26T03:21:54.487Z,52.90
2018-03-26T03:24:20.676Z,50.00
2018-03-26T03:26:47.660Z,51.10
2018-03-26T03:29:13.857Z,51.23
2018-03-26T03:31:40.826Z,54.33
2018-03-26T03:34:07.028Z,48.63
2018-03-26T03:36:33.996Z,49.30
2018-03-26T03:39:00.197Z,57.07
2018-03-26T03:41:27.160Z,48.20
2018-03-26T03:43:53.348Z,60.80
2018-03-26T03:46:19.561Z,47.00
2018-03-26T03:48:45.764Z,52.77
2018-03-26T03:51:11.988Z,65.93
2018-03-26T03:53:38.185Z,46.50
2018-03-26T03:56:05.204Z,61.10
2018-03-26T03:58:31.409Z,52.10
2018-03-26T04:00:57.620Z,57.77
2018-03-26T04:03:23.809Z,55.87
2018-03-26T04:05:50.784Z,61.57
2018-03-26T04:08:16.971Z,58.83
2018-03-26T04:10:43.184Z,56.87
2018-03-26T04:13:09.372Z,59.97
2018-03-26T04:15:35.596Z,62.53
2018-03-26T04:18:02.532Z,62.90
2018-03-26T04:20:29.557Z,63.40
2018-03-26T04:22:55.744Z,55.47
2018-03-26T04:25:21.957Z,69.13
2018-03-26T04:27:48.182Z,54.47
2018-03-26T04:30:14.401Z,60.03
2018-03-26T04:32:40.600Z,59.80
2018-03-26T04:35:06.820Z,64.23
2018-03-26T04:37:33.021Z,61.53
2018-03-26T04:39:59.232Z,60.37
2018-03-26T04:42:25.420Z,64.97
2018-03-26T04:44:51.642Z,63.47
2018-03-26T04:47:17.830Z,65.20
2018-03-26T04:49:44.053Z,62.77
2018-03-26T04:52:10.244Z,68.23
2018-03-26T04:54:37.212Z,58.67
2018-03-26T04:57:03.413Z,61.77
2018-03-26T04:59:30.368Z,54.10
2018-03-26T05:01:57.309Z,57.43
2018-03-26T05:04:24.261Z,60.10
2018-03-26T05:06:51.187Z,60.27
2018-03-26T05:09:17.400Z,57.00
2018-03-26T05:11:43.599Z,53.97
2018-03-26T05:14:09.817Z,46.53
2018-03-26T05:16:36.008Z,54.30
2018-03-26T05:19:02.232Z,57.73
2018-03-26T05:21:28.417Z,52.50
2018-03-26T05:23:54.638Z,60.70
2018-03-26T05:26:20.857Z,52.73
2018-03-26T05:28:47.067Z,44.20
2018-03-26T05:31:14.008Z,55.90
2018-03-26T05:33:40.966Z,54.90
2018-03-26T05:36:07.198Z,46.97
2018-03-26T05:38:34.140Z,50.47
2018-03-26T05:41:01.101Z,50.70
2018-03-26T05:43:27.300Z,59.00
2018-03-26T05:45:54.265Z,46.27
2018-03-26T05:48:20.525Z,50.10
2018-03-26T05:50:46.748Z,50.50
2018-03-26T05:53:12.940Z,53.10
2018-03-26T05:55:39.889Z,52.83
2018-03-26T05:58:06.824Z,46.60
2018-03-26T06:00:33.784Z,48.33
2018-03-26T06:03:00.744Z,55.80
2018-03-26T06:05:26.966Z,56.57
2018-03-26T06:07:53.168Z,51.50
2018-03-26T06:10:19.406Z,53.00
2018-03-26T06:12:46.335Z,56.77
2018-03-26T06:15:12.553Z,54.77
2018-03-26T06:17:38.765Z,48.83
2018-03-26T06:20:04.985Z,53.80
2018-03-26T06:22:31.192Z,52.00
2018-03-26T06:24:57.478Z,50.07
2018-03-26T06:27:23.732Z,52.47
2018-03-26T06:29:50.716Z,55.40
2018-03-26T06:32:16.904Z,63.23
2018-03-26T06:34:43.893Z,47.40
2018-03-26T06:37:16.275Z,52.47
2018-03-26T06:39:42.524Z,43.00
2018-03-26T06:42:08.720Z,50.60
2018-03-26T06:44:34.920Z,49.67
2018-03-26T06:47:01.911Z,53.97
2018-03-26T06:49:28.103Z,49.37
2018-03-26T06:51:54.321Z,62.63
2018-03-26T06:54:21.275Z,55.67
2018-03-26T06:56:48.286Z,56.07
2018-03-26T06:59:14.442Z,58.50
2018-03-26T07:01:41.412Z,57.67
2018-03-26T07:04:07.613Z,57.97
2018-03-26T07:06:34.578Z,61.87
2018-03-26T07:09:00.785Z,58.43
2018-03-26T07:11:27.769Z,67.13
2018-03-26T07:13:53.991Z,51.30
2018-03-26T07:16:20.217Z,56.40
2018-03-26T07:18:46.412Z,58.43
2018-03-26T07:21:12.639Z,57.60
2018-03-26T07:23:38.837Z,63.40
2018-03-26T07:26:05.080Z,60.03
2018-03-26T07:28:31.303Z,59.80
2018-03-26T07:30:57.536Z,63.80
2018-03-26T07:33:23.730Z,63.40
2018-03-26T07:35:50.154Z,54.80
2018-03-26T07:38:16.353Z,68.67
2018-03-26T07:40:43.317Z,66.50
2018-03-26T07:43:09.588Z,68.10
2018-03-26T07:45:35.825Z,76.03
2018-03-26T07:48:02.058Z,73.30
2018-03-26T07:50:28.257Z,70.10
2018-03-26T07:52:54.452Z,76.87
2018-03-26T07:55:21.412Z,73.53
2018-03-26T07:57:47.637Z,75.00
2018-03-26T08:00:14.616Z,82.47
2018-03-26T08:02:40.803Z,67.13
2018-03-26T08:05:07.772Z,72.80
2018-03-26T08:07:33.972Z,80.47
2018-03-26T08:10:00.928Z,81.37
2018-03-26T08:12:27.865Z,89.00
2018-03-26T08:14:54.112Z,82.90
2018-03-26T08:17:20.343Z,88.17
2018-03-26T08:19:46.581Z,81.17
2018-03-26T08:22:12.776Z,80.00
2018-03-26T08:24:39.764Z,82.13
2018-03-26T08:27:05.980Z,77.30
2018-03-26T08:29:32.187Z,87.23
2018-03-26T08:31:59.111Z,92.57
2018-03-26T08:34:26.059Z,98.07
2018-03-26T08:36:52.248Z,80.50
2018-03-26T08:39:18.468Z,93.47
2018-03-26T08:41:44.660Z,85.53
2018-03-26T08:44:11.641Z,95.03
2018-03-26T08:46:37.835Z,95.50
2018-03-26T08:49:04.061Z,78.73
2018-03-26T08:51:31.036Z,78.87
2018-03-26T08:53:57.232Z,85.07
2018-03-26T08:56:23.455Z,79.50
2018-03-26T08:58:49.669Z,82.90
2018-03-26T09:01:15.889Z,76.67
2018-03-26T09:03:42.089Z,69.67
2018-03-26T09:06:08.317Z,71.60
2018-03-26T09:08:34.521Z,77.23
2018-03-26T09:11:01.480Z,70.20
2018-03-26T09:13:27.676Z,57.17
2018-03-26T09:15:53.900Z,64.70
2018-03-26T09:18:20.101Z,67.13
2018-03-26T09:20:46.321Z,58.50
2018-03-26T09:23:12.515Z,63.70
2018-03-26T09:25:46.450Z,65.13
2018-03-26T09:28:12.699Z,56.70
2018-03-26T09:30:38.921Z,53.80
2018-03-26T09:33:05.109Z,49.93
2018-03-26T09:35:32.076Z,47.27
2018-03-26T09:38:05.350Z,42.60
2018-03-26T09:40:32.348Z,44.63
2018-03-26T09:42:59.530Z,46.83
2018-03-26T09:45:27.232Z,29.43
2018-03-26T09:47:53.488Z,45.97
2018-03-26T09:50:19.729Z,36.60
2018-03-26T09:52:45.924Z,36.20
2018-03-26T09:55:12.192Z,38.53
2018-03-26T09:57:38.386Z,37.63
2018-03-26T10:00:04.616Z,24.73
2018-03-26T10:02:30.831Z,37.27
2018-03-26T10:04:57.440Z,34.37
2018-03-26T10:07:24.396Z,29.97
2018-03-26T10:09:51.336Z,43.50
2018-03-26T10:12:18.292Z,24.63
2018-03-26T10:14:45.224Z,32.70
2018-03-26T10:17:12.188Z,31.13
2018-03-26T10:19:39.124Z,27.57
2018-03-26T10:22:06.080Z,28.60
2018-03-26T10:24:33.008Z,31.70
2018-03-26T10:27:00.161Z,25.10
2018-03-26T10:29:27.089Z,31.67
2018-03-26T10:31:53.408Z,27.90
2018-03-26T10:34:19.604Z,32.00
2018-03-26T10:36:45.797Z,25.00
2018-03-26T10:39:12.764Z,26.83
2018-03-26T10:41:38.988Z,22.13
2018-03-26T10:44:05.936Z,27.10
2018-03-26T10:46:32.863Z,30.07
2018-03-26T10:48:59.830Z,34.03
2018-03-26T10:51:26.026Z,24.70
2018-03-26T10:53:52.253Z,29.07
2018-03-26T10:56:18.456Z,26.17
2018-03-26T10:58:44.676Z,20.67
2018-03-26T11:01:10.892Z,27.77
2018-03-26T11:03:37.115Z,33.00
2018-03-26T11:06:03.296Z,32.43
2018-03-26T11:08:29.549Z,30.47
2018-03-26T11:10:56.485Z,35.20
2018-03-26T11:13:23.444Z,36.87
2018-03-26T11:15:49.644Z,38.80
2018-03-26T11:18:15.837Z,41.23
2018-03-26T11:20:42.057Z,47.03
2018-03-26T11:23:08.250Z,49.27
2018-03-26T11:25:35.212Z,44.90
2018-03-26T11:28:01.477Z,52.80
2018-03-26T11:30:27.676Z,51.57
2018-03-26T11:32:53.866Z,44.80
2018-03-26T11:35:20.851Z,40.73
2018-03-26T11:37:47.042Z,46.23
2018-03-26T11:40:13.256Z,39.40
2018-03-26T11:42:39.450Z,48.17
2018-03-26T11:45:05.659Z,44.97
2018-03-26T11:47:31.848Z,50.23
2018-03-26T11:49:58.032Z,46.13
2018-03-26T11:52:24.248Z,34.97
2018-03-26T11:54:50.443Z,52.20
2018-03-26T11:57:16.931Z,45.27
2018-03-26T11:59:43.133Z,52.83
2018-03-26T12:02:10.106Z,42.20
2018-03-26T12:04:36.312Z,36.80
2018-03-26T12:07:02.853Z,55.87
2018-03-26T12:09:29.057Z,43.77
2018-03-26T12:11:56.016Z,37.07
2018-03-26T12:14:22.969Z,42.10
2018-03-26T12:16:49.353Z,44.07
2018-03-26T12:19:15.548Z,40.63
2018-03-26T12:21:41.740Z,45.93
2018-03-26T12:24:21.249Z,44.13
2018-03-26T12:26:47.472Z,40.70
2018-03-26T12:29:26.112Z,44.03
2018-03-26T12:31:53.048Z,42.07
2018-03-26T12:34:31.568Z,38.50
2018-03-26T12:36:57.755Z,38.00
2018-03-26T12:39:23.968Z,37.47
2018-03-26T12:41:50.169Z,34.90
2018-03-26T12:44:28.807Z,40.03
2018-03-26T12:46:55.809Z,35.70
2018-03-26T12:49:22.012Z,45.90
2018-03-26T12:52:00.799Z,37.90
2018-03-26T12:54:27.728Z,42.90
2018-03-26T12:57:07.453Z,32.27
2018-03-26T12:59:33.689Z,36.77
2018-03-26T13:02:12.284Z,36.00
2018-03-26T13:04:38.471Z,36.40
2018-03-26T13:07:05.404Z,36.33
2018-03-26T13:09:31.685Z,42.70
2018-03-26T13:11:58.276Z,44.03
2018-03-26T13:14:24.484Z,38.43
2018-03-26T13:16:50.740Z,40.37
2018-03-26T13:19:17.705Z,31.70
2018-03-26T13:21:43.974Z,36.73
2018-03-26T13:24:10.210Z,44.20
2018-03-26T13:26:36.441Z,28.73
2018-03-26T13:29:02.673Z,33.97
2018-03-26T13:31:28.865Z,41.80
2018-03-26T13:33:55.081Z,43.77
2018-03-26T13:36:21.272Z,43.00
2018-03-26T13:38:47.494Z,41.17
2018-03-26T13:41:13.698Z,41.73
2018-03-26T13:43:39.911Z,33.30
2018-03-26T13:46:06.452Z,17.43
2018-03-26T13:48:32.676Z,27.77
2018-03-26T13:50:59.612Z,30.90
2018-03-26T13:53:25.853Z,30.83
2018-03-26T13:55:52.044Z,32.47
2018-03-26T13:58:19.069Z,28.63
2018-03-26T14:00:45.264Z,31.35
2018-03-26T14:03:11.480Z,40.10
2018-03-26T14:05:37.676Z,38.00
2018-03-26T14:08:04.678Z,38.50
2018-03-26T14:10:43.076Z,31.13
2018-03-26T14:16:25.657Z,37.27
2018-03-26T14:18:51.869Z,26.73
2018-03-26T14:21:18.064Z,34.80
2018-03-26T14:23:44.434Z,47.83
2018-03-26T14:26:10.645Z,34.00
2018-03-26T14:28:36.857Z,27.20
2018-03-26T14:31:03.104Z,31.17
2018-03-26T14:33:29.305Z,44.83
2018-03-26T14:35:55.644Z,60.73
2018-03-26T14:38:22.584Z,64.10
2018-03-26T14:40:48.810Z,78.47
2018-03-26T14:43:15.078Z,64.57
2018-03-26T14:45:41.297Z,61.50
2018-03-26T14:48:07.509Z,74.97
2018-03-26T14:50:33.788Z,70.23
2018-03-26T14:52:59.986Z,60.20
2018-03-26T14:55:26.226Z,63.27
2018-03-26T14:57:52.437Z,55.23
2018-03-26T15:00:18.629Z,60.77
2018-03-26T15:02:45.633Z,62.87
2018-03-26T15:05:12.609Z,64.67
2018-03-26T15:07:39.576Z,70.37
2018-03-26T15:10:05.773Z,60.27
2018-03-26T15:12:32.009Z,82.50
2018-03-26T15:14:58.205Z,77.60
2018-03-26T15:17:24.432Z,77.40
2018-03-26T15:19:50.633Z,71.63
2018-03-26T15:22:16.853Z,80.53
2018-03-26T15:24:43.564Z,75.13
2018-03-26T15:27:09.791Z,73.43
2018-03-26T15:29:36.007Z,66.07
2018-03-26T15:32:02.201Z,72.43
2018-03-26T15:34:28.429Z,68.47
2018-03-26T15:36:54.648Z,79.00
2018-03-26T15:39:20.860Z,62.40
2018-03-26T15:41:47.057Z,69.47
2018-03-26T15:44:14.040Z,82.93
2018-03-26T15:46:40.968Z,75.47
2018-03-26T15:49:07.369Z,76.80
2018-03-26T15:51:33.555Z,67.80
2018-03-26T15:53:59.740Z,78.30
2018-03-26T15:56:25.960Z,77.53
2018-03-26T15:58:52.148Z,80.00
2018-03-26T16:01:18.365Z,84.87
2018-03-26T16:03:44.560Z,71.80
2018-03-26T16:06:10.782Z,83.17
2018-03-26T16:08:36.984Z,92.00
2018-03-26T16:11:03.221Z,79.80
2018-03-26T16:13:29.417Z,81.73
2018-03-26T16:15:55.636Z,87.20
2018-03-26T16:18:21.884Z,85.83
2018-03-26T16:20:48.106Z,86.93
2018-03-26T16:23:14.297Z,84.50
2018-03-26T16:25:41.292Z,82.80
2018-03-26T16:28:07.504Z,64.17
2018-03-26T16:30:33.720Z,87.53
2018-03-26T16:33:00.657Z,88.43
2018-03-26T16:35:27.654Z,55.90
2018-03-26T16:37:53.846Z,23.27
2018-03-26T16:40:20.036Z,13.23
2018-03-26T16:42:46.312Z,7.20
2018-03-26T16:45:12.763Z,14.60
2018-03-26T16:47:38.985Z,9.93
2018-03-26T16:50:05.180Z,11.03
2018-03-26T16:52:32.142Z,12.43
2018-03-26T16:54:58.336Z,29.30
2018-03-26T16:57:24.688Z,26.57
2018-03-26T16:59:50.900Z,17.37
2018-03-26T17:02:17.362Z,18.53
2018-03-26T17:04:44.315Z,15.43
2018-03-26T17:07:10.512Z,11.37
2018-03-26T17:09:36.732Z,15.40
2018-03-26T17:12:02.929Z,11.87
2018-03-26T17:14:29.143Z,15.20
2018-03-26T17:16:55.338Z,12.07
2018-03-26T17:19:22.314Z,13.77
2018-03-26T17:21:48.761Z,13.07
2018-03-26T17:24:15.032Z,10.37
2018-03-26T17:26:41.229Z,11.93
2018-03-26T17:29:07.456Z,13.80
2018-03-26T17:31:33.652Z,18.70
2018-03-26T17:33:59.840Z,16.93
2018-03-26T17:36:27.536Z,19.77
2018-03-26T17:38:54.477Z,17.13
2018-03-26T17:41:21.668Z,14.43
2018-03-26T17:43:47.865Z,15.13
2018-03-26T17:46:14.847Z,16.33
2018-03-26T17:48:41.085Z,15.93
2018-03-26T17:51:07.273Z,16.03
2018-03-26T17:53:34.208Z,17.00
2018-03-26T17:56:01.164Z,15.97
2018-03-26T17:58:27.351Z,17.37
2018-03-26T18:00:54.317Z,16.10
2018-03-26T18:03:21.254Z,15.70
2018-03-26T18:05:54.545Z,17.90
2018-03-26T18:08:20.736Z,15.73
2018-03-26T18:10:46.972Z,14.90
2018-03-26T18:13:13.172Z,15.70
2018-03-26T18:15:39.369Z,22.93
2018-03-26T18:18:05.583Z,23.87
2018-03-26T18:20:31.778Z,24.13
2018-03-26T18:22:58.027Z,23.97
2018-03-26T18:25:24.220Z,18.57
2018-03-26T18:27:50.436Z,17.03
2018-03-26T18:30:16.644Z,15.30
2018-03-26T18:32:42.860Z,21.63
2018-03-26T18:35:09.051Z,30.03
2018-03-26T18:37:35.287Z,18.43
2018-03-26T18:40:01.482Z,41.73
2018-03-26T18:42:27.706Z,21.43
2018-03-26T18:44:54.648Z,20.40
2018-03-26T18:47:20.937Z,28.80
2018-03-26T18:49:47.153Z,24.53
2018-03-26T18:52:13.676Z,27.87
2018-03-26T18:54:39.872Z,33.67
2018-03-26T18:57:06.898Z,25.37
2018-03-26T18:59:33.049Z,32.10
2018-03-26T19:02:07.112Z,44.00
2018-03-26T19:04:33.319Z,39.97
2018-03-26T19:06:59.514Z,46.20
2018-03-26T19:09:26.469Z,51.83
2018-03-26T19:11:52.665Z,38.90
2018-03-26T19:14:18.940Z,38.97
2018-03-26T19:16:45.178Z,31.40
2018-03-26T19:19:11.364Z,41.60
2018-03-26T19:21:38.300Z,48.90
2018-03-26T19:24:04.560Z,30.50
2018-03-26T19:26:30.752Z,30.10
2018-03-26T19:28:56.965Z,25.03
2018-03-26T19:31:23.161Z,32.70
2018-03-26T19:33:49.423Z,27.40
2018-03-26T19:36:15.616Z,27.93
2018-03-26T19:38:41.873Z,30.97
2018-03-26T19:41:08.097Z,25.50
2018-03-26T19:43:34.293Z,24.37
2018-03-26T19:46:00.517Z,26.87
2018-03-26T19:48:27.454Z,38.17
2018-03-26T19:50:54.417Z,24.67
2018-03-26T19:53:20.613Z,25.00
2018-03-26T19:55:46.815Z,20.40
2018-03-26T19:58:12.983Z,28.40
2018-03-26T20:00:39.919Z,26.40
2018-03-26T20:03:06.104Z,32.27
2018-03-26T20:05:32.332Z,24.97
2018-03-26T20:07:58.533Z,32.73
2018-03-26T20:10:24.760Z,27.57
2018-03-26T20:12:51.044Z,30.43
2018-03-26T20:15:17.240Z,30.07
2018-03-26T20:17:43.464Z,26.23
2018-03-26T20:20:09.688Z,33.87
2018-03-26T20:22:35.904Z,23.03
2018-03-26T20:25:02.864Z,32.20
2018-03-26T20:27:29.100Z,32.03
2018-03-26T20:29:55.301Z,30.23
2018-03-26T20:32:22.242Z,26.97
2018-03-26T20:34:49.201Z,23.40
2018-03-26T20:37:15.428Z,29.90
2018-03-26T20:39:41.625Z,30.30
2018-03-26T20:42:07.856Z,26.03
2018-03-26T20:44:34.047Z,28.27
2018-03-26T20:47:00.232Z,34.23
2018-03-26T20:49:27.189Z,27.27
2018-03-26T20:51:53.384Z,27.73
2018-03-26T20:54:19.612Z,32.13
2018-03-26T20:56:45.817Z,26.47
2018-03-26T20:59:12.036Z,28.80
2018-03-26T21:01:38.228Z,31.00
2018-03-26T21:04:05.200Z,32.23
2018-03-26T21:06:31.401Z,31.13
2018-03-26T21:08:58.355Z,24.40
2018-03-26T21:11:24.568Z,35.70
2018-03-26T21:13:51.520Z,29.77
2018-03-26T21:16:18.710Z,23.80
2018-03-26T21:18:44.927Z,26.20
2018-03-26T21:21:11.176Z,31.07
2018-03-26T21:23:37.359Z,24.73
2018-03-26T21:26:04.344Z,26.83
2018-03-26T21:28:30.556Z,34.03
2018-03-26T21:30:56.749Z,20.73
2018-03-26T21:33:23.712Z,27.90
2018-03-26T21:35:50.657Z,25.40
2018-03-26T21:38:18.070Z,29.23
2018-03-26T21:40:44.265Z,23.30
2018-03-26T21:43:10.481Z,31.47
2018-03-26T21:45:36.825Z,29.00
2018-03-26T21:48:03.082Z,28.80
2018-03-26T21:50:29.288Z,24.13
2018-03-26T21:52:55.486Z,21.67
2018-03-26T21:55:22.455Z,27.83
2018-03-26T21:57:48.657Z,31.50
2018-03-26T22:00:16.524Z,25.43
2018-03-26T22:02:43.476Z,27.23
2018-03-26T22:05:10.562Z,26.27
2018-03-26T22:07:36.757Z,28.43
2018-03-26T22:10:03.700Z,34.17
2018-03-26T22:12:30.684Z,32.50
2018-03-26T22:14:56.900Z,25.33
2018-03-26T22:17:23.132Z,24.50
2018-03-26T22:19:49.325Z,24.03
2018-03-26T22:22:16.288Z,30.37
2018-03-26T22:24:42.481Z,26.73
2018-03-26T22:27:08.693Z,32.37
2018-03-26T22:29:34.892Z,34.80
2018-03-26T22:32:01.109Z,27.70
2018-03-26T22:34:27.304Z,24.93
2018-03-26T22:36:54.264Z,29.40
2018-03-26T22:39:21.205Z,31.80
2018-03-26T22:41:48.160Z,27.90
2018-03-26T22:44:15.097Z,32.83
2018-03-26T22:46:42.084Z,31.40
2018-03-26T22:49:08.287Z,25.20
2018-03-26T22:51:35.244Z,27.47
2018-03-26T22:54:01.432Z,25.13
2018-03-26T22:56:27.781Z,34.57
2018-03-26T22:58:54.712Z,27.97
2018-03-26T23:01:21.233Z,23.73
2018-03-26T23:03:47.431Z,34.70
2018-03-26T23:06:13.643Z,35.73
2018-03-26T23:08:39.879Z,35.50
2018-03-26T23:11:06.068Z,28.13
2018-03-26T23:13:32.285Z,41.80
2018-03-26T23:15:59.256Z,34.20
2018-03-26T23:18:26.221Z,28.50
2018-03-26T23:20:52.449Z,37.17
2018-03-26T23:23:18.660Z,35.77
2018-03-26T23:25:45.597Z,37.77
2018-03-26T23:28:19.741Z,30.57
2018-03-26T23:30:45.937Z,29.17
2018-03-26T23:33:12.124Z,35.17
2018-03-26T23:35:38.380Z,37.77
2018-03-26T23:38:04.636Z,32.90
2018-03-26T23:40:31.575Z,38.03
2018-03-26T23:42:58.509Z,46.30
2018-03-26T23:45:24.725Z,32.97
2018-03-26T23:47:50.952Z,47.43
2018-03-26T23:50:17.160Z,45.80
2018-03-26T23:52:43.344Z,42.57
2018-03-26T23:55:10.316Z,36.17
2018-03-26T23:57:36.504Z,53.80
